MET'MAP v2.0
soon released !

Expected late october,
this new version will be
more efficient, smarter,
and hosted on a brand new
server x3 powerfull...
...and still free !


Not compatible ?
Try the mobile version !

LOG IN : | Subscribe | Disclaimer | Who is Orbifly ? |
ICAO code :

TAF - EDDH Hamburg - 25 Jan 2020 11:41 UTC - Data Source NOAA   


- Airport Elevation : 53 ft
- IATA code : HAM
- No reported NOTAMs.


EDDH - Hamburg

Latest METAR recorded : 2015/08/11 07:50 EDDH 110750Z 33004KT 270V020 9999 BKN010 BKN034 19/17 Q1017 BECMG SCT020
TAF TAF EDDH
Valid from the 25 at 06:00 until the 26 at 12:00 UTC


250500Z 2506/2612 22007KT 4500 BR SCT004 OVC006
TEMPO 2506/2511 2500 -DZ OVC004
PROB30
TEMPO 2508/2510 6000
BECMG 2510/2512 7000
TEMPO 2512/2518 4500 BR
BECMG 2518/2520 4000 BR
TEMPO 2518/2610 2000 -DZ BKN004
BECMG 2610/2612 9000 SCT008

Source NOAA


MET'MAP, your aeronautical weather chart ! - Copyright ORBIFLY December 2007

Programming & Development : Alexandra Zaïnal
Co-Developer : Marc-Olivier Méhu
Technical & hardware support : Manuel Goepfert
Concept & Financing : Baudouin d'Aumeries